Portada
METAR-TAF:

METAR-TAF

Aeropuertos :

Aeropuerto Internacional de Baréin

Baréin, Bahréin

latitud: 26-16N, longitud: 050-39E, altitud: 2 m

Observación

El informe se hizo hace 19 minutos, a las 20:00 UTC
Viento 5 kt del norte-noroeste
Temperatura 24°C
Humedad 57%
Presión 1014 hPa
Visibilidad 10 km o más
sin nubes por debajo de 1500 m y sin presencia de cumulonimbus.

METAR: OBBI 132000Z 33005KT CAVOK 24/15 Q1014 NOSIG

Hora: 23:19 (20:19 UTC)

Pronóstico

El informe se hizo hace 3 horas y 19 minutos, a las 17:00 UTC
Pronóstico válido del 13 a las 18 UTC al 15 a las 00 UTC
Viento 12 kt del norte
Visibilidad 10 km o más
sin nubes por debajo de 1500 m y sin presencia de cumulonimbus.
Evolucionando progresivamente
del 14 a las 10 UTC al 14 a las 12 UTC
Viento 10 kt del este-noreste

TAF: OBBI 131700Z 1318/1500 36012KT CAVOK BECMG 1410/1412 07010KT

Observaciones y pronósticos meteorológicos de más de 4000 aeropuertos (mensajes METAR y TAF).

Los puntos amarillos y rojos representan las estaciones disponibles.

Ponga el ratón en el punto deseado para ver el nombre de la estación.

Haga clic para ver las observaciones y los pronósticos meteorológicos.

Para cambiar el mapa : haga clic en los botones verdes con una cruz de color negro para hacer un zoom, en el botón verde con un guión para alejar o en las flechas verdes para mapas adyacentes.


METAR-TAF: